sensor_id;sensor_type;location;lat;lon;timestamp;temperature;humidity
7248;DHT22;3665;51.034;13.642;2023-03-01T00:07:39;-5.20;1.00
7248;DHT22;3665;51.034;13.642;2023-03-01T00:12:50;-5.20;99.90
7248;DHT22;3665;51.034;13.642;2023-03-01T00:17:46;-5.40;82.90
7248;DHT22;3665;51.034;13.642;2023-03-01T00:23:03;-5.50;99.90
7248;DHT22;3665;51.034;13.642;2023-03-01T00:28:04;-5.50;1.00
7248;DHT22;3665;51.034;13.642;2023-03-01T00:32:52;-5.50;1.00
7248;DHT22;3665;51.034;13.642;2023-03-01T00:38:11;-5.30;1.00
7248;DHT22;3665;51.034;13.642;2023-03-01T00:43:23;-5.20;1.00
7248;DHT22;3665;51.034;13.642;2023-03-01T00:48:55;-5.20;99.90
7248;DHT22;3665;51.034;13.642;2023-03-01T00:54:15;-5.10;1.00
7248;DHT22;3665;51.034;13.642;2023-03-01T00:59:32;-5.10;5.00
7248;DHT22;3665;51.034;13.642;2023-03-01T01:04:17;-5.10;99.90
7248;DHT22;3665;51.034;13.642;2023-03-01T01:09:12;-5.20;1.00
7248;DHT22;3665;51.034;13.642;2023-03-01T01:14:58;-5.30;99.90
7248;DHT22;3665;51.034;13.642;2023-03-01T01:19:47;-5.30;1.00
7248;DHT22;3665;51.034;13.642;2023-03-01T01:25:08;-5.40;1.00
7248;DHT22;3665;51.034;13.642;2023-03-01T01:30:28;-5.40;99.90
7248;DHT22;3665;51.034;13.642;2023-03-01T01:36:11;-5.60;99.90
7248;DHT22;3665;51.034;13.642;2023-03-01T01:41:26;-5.70;1.00
7248;DHT22;3665;51.034;13.642;2023-03-01T01:52:07;-5.90;1.00
7248;DHT22;3665;51.034;13.642;2023-03-01T01:57:14;-6.00;1.00
7248;DHT22;3665;51.034;13.642;2023-03-01T02:02:11;-6.10;1.00
7248;DHT22;3665;51.034;13.642;2023-03-01T02:07:36;-6.20;1.00
7248;DHT22;3665;51.034;13.642;2023-03-01T02:12:39;-6.40;1.00
7248;DHT22;3665;51.034;13.642;2023-03-01T02:17:44;-6.50;99.90
7248;DHT22;3665;51.034;13.642;2023-03-01T02:22:50;-6.50;99.90
7248;DHT22;3665;51.034;13.642;2023-03-01T02:27:51;-6.40;99.90
7248;DHT22;3665;51.034;13.642;2023-03-01T02:32:54;-6.30;99.90
7248;DHT22;3665;51.034;13.642;2023-03-01T02:37:54;-6.00;99.90
7248;DHT22;3665;51.034;13.642;2023-03-01T02:42:59;-5.90;99.90
7248;DHT22;3665;51.034;13.642;2023-03-01T02:48:05;-6.00;99.90
7248;DHT22;3665;51.034;13.642;2023-03-01T02:53:12;-5.90;99.90
7248;DHT22;3665;51.034;13.642;2023-03-01T02:58:11;-5.80;99.90
7248;DHT22;3665;51.034;13.642;2023-03-01T03:03:20;-5.80;99.90
7248;DHT22;3665;51.034;13.642;2023-03-01T03:08:19;-5.80;99.90
7248;DHT22;3665;51.034;13.642;2023-03-01T03:13:15;-5.90;99.90
7248;DHT22;3665;51.034;13.642;2023-03-01T03:18:31;-6.00;99.90
7248;DHT22;3665;51.034;13.642;2023-03-01T03:23:32;-6.10;99.90
7248;DHT22;3665;51.034;13.642;2023-03-01T03:28:35;-6.20;99.90
7248;DHT22;3665;51.034;13.642;2023-03-01T03:33:41;-6.20;99.90
7248;DHT22;3665;51.034;13.642;2023-03-01T03:38:46;-6.20;99.90
7248;DHT22;3665;51.034;13.642;2023-03-01T03:43:48;-6.30;99.90
7248;DHT22;3665;51.034;13.642;2023-03-01T03:48:56;-6.50;99.90
7248;DHT22;3665;51.034;13.642;2023-03-01T03:54:19;-6.50;99.90
7248;DHT22;3665;51.034;13.642;2023-03-01T03:59:15;-6.70;99.90
7248;DHT22;3665;51.034;13.642;2023-03-01T04:04:04;-6.80;99.90
7248;DHT22;3665;51.034;13.642;2023-03-01T04:09:05;-6.90;99.90
7248;DHT22;3665;51.034;13.642;2023-03-01T04:13:56;-6.80;99.90
7248;DHT22;3665;51.034;13.642;2023-03-01T04:18:44;-6.60;99.90
7248;DHT22;3665;51.034;13.642;2023-03-01T04:23:31;-6.60;99.90
7248;DHT22;3665;51.034;13.642;2023-03-01T04:28:21;-6.60;99.90
7248;DHT22;3665;51.034;13.642;2023-03-01T04:33:08;-6.70;99.90
7248;DHT22;3665;51.034;13.642;2023-03-01T04:37:56;-6.70;99.90
7248;DHT22;3665;51.034;13.642;2023-03-01T04:42:43;-6.90;99.90
7248;DHT22;3665;51.034;13.642;2023-03-01T04:47:33;-7.10;99.90
7248;DHT22;3665;51.034;13.642;2023-03-01T04:52:19;-7.10;99.90
7248;DHT22;3665;51.034;13.642;2023-03-01T04:57:06;-7.10;99.90
7248;DHT22;3665;51.034;13.642;2023-03-01T05:01:55;-7.20;99.90
7248;DHT22;3665;51.034;13.642;2023-03-01T05:06:44;-7.00;99.90
7248;DHT22;3665;51.034;13.642;2023-03-01T05:11:30;-6.80;99.90
7248;DHT22;3665;51.034;13.642;2023-03-01T05:16:17;-6.90;99.90
7248;DHT22;3665;51.034;13.642;2023-03-01T05:21:07;-7.00;99.90
7248;DHT22;3665;51.034;13.642;2023-03-01T05:25:57;-7.00;99.90
7248;DHT22;3665;51.034;13.642;2023-03-01T05:30:41;-7.00;99.90
7248;DHT22;3665;51.034;13.642;2023-03-01T05:35:29;-7.00;99.90
7248;DHT22;3665;51.034;13.642;2023-03-01T05:40:21;-7.00;99.90
7248;DHT22;3665;51.034;13.642;2023-03-01T05:45:06;-7.00;99.90
7248;DHT22;3665;51.034;13.642;2023-03-01T05:49:55;-6.90;99.90
7248;DHT22;3665;51.034;13.642;2023-03-01T05:54:42;-7.00;99.90
7248;DHT22;3665;51.034;13.642;2023-03-01T05:59:30;-7.20;99.90
7248;DHT22;3665;51.034;13.642;2023-03-01T06:04:22;-7.30;99.90
7248;DHT22;3665;51.034;13.642;2023-03-01T06:09:07;-7.30;99.90
7248;DHT22;3665;51.034;13.642;2023-03-01T06:13:53;-7.30;99.90
7248;DHT22;3665;51.034;13.642;2023-03-01T06:18:46;-7.20;99.90
7248;DHT22;3665;51.034;13.642;2023-03-01T06:23:29;-7.00;99.90
7248;DHT22;3665;51.034;13.642;2023-03-01T06:28:17;-6.80;99.90
7248;DHT22;3665;51.034;13.642;2023-03-01T06:33:10;-6.80;99.90
7248;DHT22;3665;51.034;13.642;2023-03-01T06:37:55;-6.70;99.90
7248;DHT22;3665;51.034;13.642;2023-03-01T06:42:43;-6.50;99.90
7248;DHT22;3665;51.034;13.642;2023-03-01T06:47:30;-6.50;99.90
7248;DHT22;3665;51.034;13.642;2023-03-01T06:52:18;-6.40;99.90
7248;DHT22;3665;51.034;13.642;2023-03-01T06:57:28;-6.20;99.90
7248;DHT22;3665;51.034;13.642;2023-03-01T07:02:12;-6.10;99.90
7248;DHT22;3665;51.034;13.642;2023-03-01T07:06:57;-5.80;99.90
7248;DHT22;3665;51.034;13.642;2023-03-01T07:11:46;-5.70;99.90
7248;DHT22;3665;51.034;13.642;2023-03-01T07:16:40;-5.40;99.90
7248;DHT22;3665;51.034;13.642;2023-03-01T07:21:24;-5.10;99.90
7248;DHT22;3665;51.034;13.642;2023-03-01T07:26:09;-4.80;99.90
7248;DHT22;3665;51.034;13.642;2023-03-01T07:31:00;-4.60;99.90
7248;DHT22;3665;51.034;13.642;2023-03-01T07:36:04;-4.30;99.90
7248;DHT22;3665;51.034;13.642;2023-03-01T07:40:51;-4.10;99.90
7248;DHT22;3665;51.034;13.642;2023-03-01T07:45:37;-3.60;99.90
7248;DHT22;3665;51.034;13.642;2023-03-01T07:50:26;-3.40;99.90
7248;DHT22;3665;51.034;13.642;2023-03-01T07:55:13;-3.10;99.90
7248;DHT22;3665;51.034;13.642;2023-03-01T08:00:04;-2.70;99.90
7248;DHT22;3665;51.034;13.642;2023-03-01T08:05:11;-2.40;99.90
7248;DHT22;3665;51.034;13.642;2023-03-01T08:09:54;-2.00;99.90
7248;DHT22;3665;51.034;13.642;2023-03-01T08:14:49;-1.60;99.90
7248;DHT22;3665;51.034;13.642;2023-03-01T08:19:50;-1.30;99.90
7248;DHT22;3665;51.034;13.642;2023-03-01T08:24:34;-1.00;99.90
7248;DHT22;3665;51.034;13.642;2023-03-01T08:29:23;-0.80;99.90
7248;DHT22;3665;51.034;13.642;2023-03-01T08:34:15;-0.60;81.40
7248;DHT22;3665;51.034;13.642;2023-03-01T08:38:59;-0.20;67.90
7248;DHT22;3665;51.034;13.642;2023-03-01T08:43:48;0.00;38.30
7248;DHT22;3665;51.034;13.642;2023-03-01T08:48:34;0.20;33.20
7248;DHT22;3665;51.034;13.642;2023-03-01T08:53:23;0.40;20.20
7248;DHT22;3665;51.034;13.642;2023-03-01T08:58:10;0.70;22.60
7248;DHT22;3665;51.034;13.642;2023-03-01T09:03:03;0.80;15.70
7248;DHT22;3665;51.034;13.642;2023-03-01T09:07:46;1.20;7.30
7248;DHT22;3665;51.034;13.642;2023-03-01T09:12:37;1.50;1.70
7248;DHT22;3665;51.034;13.642;2023-03-01T09:17:21;1.60;1.00
7248;DHT22;3665;51.034;13.642;2023-03-01T09:22:15;1.90;1.00
7248;DHT22;3665;51.034;13.642;2023-03-01T09:27:50;2.00;1.00
7248;DHT22;3665;51.034;13.642;2023-03-01T09:32:34;2.00;1.00
7248;DHT22;3665;51.034;13.642;2023-03-01T09:37:22;2.20;1.00
7248;DHT22;3665;51.034;13.642;2023-03-01T09:42:12;2.40;1.00
7248;DHT22;3665;51.034;13.642;2023-03-01T09:47:01;2.50;1.00
7248;DHT22;3665;51.034;13.642;2023-03-01T09:51:57;2.50;1.00
7248;DHT22;3665;51.034;13.642;2023-03-01T09:56:53;2.80;1.00
7248;DHT22;3665;51.034;13.642;2023-03-01T10:02:01;3.10;1.00
7248;DHT22;3665;51.034;13.642;2023-03-01T10:07:18;3.20;1.00
7248;DHT22;3665;51.034;13.642;2023-03-01T10:12:09;3.30;1.00
7248;DHT22;3665;51.034;13.642;2023-03-01T10:17:12;3.60;1.00
7248;DHT22;3665;51.034;13.642;2023-03-01T10:22:09;3.80;1.00
7248;DHT22;3665;51.034;13.642;2023-03-01T10:26:58;4.10;1.00
7248;DHT22;3665;51.034;13.642;2023-03-01T10:31:48;4.00;1.00
7248;DHT22;3665;51.034;13.642;2023-03-01T10:36:39;4.00;1.00
7248;DHT22;3665;51.034;13.642;2023-03-01T10:41:26;4.00;1.00
7248;DHT22;3665;51.034;13.642;2023-03-01T10:46:42;4.20;1.00
7248;DHT22;3665;51.034;13.642;2023-03-01T10:51:32;4.50;1.00
7248;DHT22;3665;51.034;13.642;2023-03-01T10:56:23;4.60;1.00
7248;DHT22;3665;51.034;13.642;2023-03-01T11:01:37;4.60;1.00
7248;DHT22;3665;51.034;13.642;2023-03-01T11:06:42;4.80;1.00
7248;DHT22;3665;51.034;13.642;2023-03-01T11:11:32;4.90;1.00
7248;DHT22;3665;51.034;13.642;2023-03-01T11:21:41;4.80;1.00
7248;DHT22;3665;51.034;13.642;2023-03-01T11:26:27;4.90;1.00
7248;DHT22;3665;51.034;13.642;2023-03-01T11:31:31;5.20;1.00
7248;DHT22;3665;51.034;13.642;2023-03-01T11:36:25;5.30;1.00
7248;DHT22;3665;51.034;13.642;2023-03-01T11:41:26;5.50;1.00
7248;DHT22;3665;51.034;13.642;2023-03-01T11:51:48;5.70;1.00
7248;DHT22;3665;51.034;13.642;2023-03-01T11:56:38;5.90;1.00
7248;DHT22;3665;51.034;13.642;2023-03-01T12:07:04;6.00;1.00
7248;DHT22;3665;51.034;13.642;2023-03-01T12:12:37;6.00;1.00
7248;DHT22;3665;51.034;13.642;2023-03-01T12:23:22;6.30;1.00
7248;DHT22;3665;51.034;13.642;2023-03-01T12:28:40;6.20;1.00
7248;DHT22;3665;51.034;13.642;2023-03-01T12:33:45;6.30;1.00
7248;DHT22;3665;51.034;13.642;2023-03-01T12:38:46;6.50;1.00
7248;DHT22;3665;51.034;13.642;2023-03-01T12:43:47;6.40;1.00
7248;DHT22;3665;51.034;13.642;2023-03-01T12:48:59;6.40;1.00
7248;DHT22;3665;51.034;13.642;2023-03-01T12:53:55;6.40;1.00
7248;DHT22;3665;51.034;13.642;2023-03-01T12:58:51;6.40;1.00
7248;DHT22;3665;51.034;13.642;2023-03-01T13:04:21;6.50;1.00
7248;DHT22;3665;51.034;13.642;2023-03-01T13:09:33;6.20;1.00
7248;DHT22;3665;51.034;13.642;2023-03-01T13:14:45;6.10;1.00
7248;DHT22;3665;51.034;13.642;2023-03-01T13:19:32;6.30;1.00
7248;DHT22;3665;51.034;13.642;2023-03-01T13:25:16;6.20;1.00
7248;DHT22;3665;51.034;13.642;2023-03-01T13:30:42;6.10;1.00
7248;DHT22;3665;51.034;13.642;2023-03-01T13:35:50;6.10;1.00
7248;DHT22;3665;51.034;13.642;2023-03-01T13:40:59;6.30;1.00
7248;DHT22;3665;51.034;13.642;2023-03-01T13:45:57;6.30;1.00
7248;DHT22;3665;51.034;13.642;2023-03-01T13:50:46;6.30;1.00
7248;DHT22;3665;51.034;13.642;2023-03-01T13:55:37;6.30;1.00
7248;DHT22;3665;51.034;13.642;2023-03-01T14:00:28;6.10;1.00
7248;DHT22;3665;51.034;13.642;2023-03-01T14:05:43;6.00;1.00
7248;DHT22;3665;51.034;13.642;2023-03-01T14:10:36;5.90;1.00
7248;DHT22;3665;51.034;13.642;2023-03-01T14:15:49;5.90;1.00
7248;DHT22;3665;51.034;13.642;2023-03-01T14:20:40;6.00;1.00
7248;DHT22;3665;51.034;13.642;2023-03-01T14:25:27;5.90;1.00
7248;DHT22;3665;51.034;13.642;2023-03-01T14:30:30;5.80;1.00
7248;DHT22;3665;51.034;13.642;2023-03-01T14:35:22;5.50;1.00
7248;DHT22;3665;51.034;13.642;2023-03-01T14:40:23;5.50;1.00
7248;DHT22;3665;51.034;13.642;2023-03-01T14:45:47;5.40;1.00
7248;DHT22;3665;51.034;13.642;2023-03-01T14:50:50;5.30;1.00
7248;DHT22;3665;51.034;13.642;2023-03-01T14:55:51;5.00;1.00
7248;DHT22;3665;51.034;13.642;2023-03-01T15:00:36;5.10;1.00
7248;DHT22;3665;51.034;13.642;2023-03-01T15:05:27;4.80;1.00
7248;DHT22;3665;51.034;13.642;2023-03-01T15:10:20;4.80;1.00
7248;DHT22;3665;51.034;13.642;2023-03-01T15:15:35;4.80;1.00
7248;DHT22;3665;51.034;13.642;2023-03-01T15:20:20;4.70;1.00
7248;DHT22;3665;51.034;13.642;2023-03-01T15:25:16;4.70;1.00
7248;DHT22;3665;51.034;13.642;2023-03-01T15:30:17;4.50;1.00
7248;DHT22;3665;51.034;13.642;2023-03-01T15:35:33;4.50;1.00
7248;DHT22;3665;51.034;13.642;2023-03-01T15:40:23;4.40;1.00
7248;DHT22;3665;51.034;13.642;2023-03-01T15:45:27;4.30;1.00
7248;DHT22;3665;51.034;13.642;2023-03-01T15:50:16;4.00;1.00
7248;DHT22;3665;51.034;13.642;2023-03-01T15:55:03;3.80;1.00
7248;DHT22;3665;51.034;13.642;2023-03-01T15:59:49;3.60;1.00
7248;DHT22;3665;51.034;13.642;2023-03-01T16:04:35;3.40;1.00
7248;DHT22;3665;51.034;13.642;2023-03-01T16:09:24;3.30;1.00
7248;DHT22;3665;51.034;13.642;2023-03-01T16:14:14;3.10;1.00
7248;DHT22;3665;51.034;13.642;2023-03-01T16:19:01;2.90;1.00
7248;DHT22;3665;51.034;13.642;2023-03-01T16:23:48;2.50;1.00
7248;DHT22;3665;51.034;13.642;2023-03-01T16:28:40;2.30;1.00
7248;DHT22;3665;51.034;13.642;2023-03-01T16:33:24;1.90;1.00
7248;DHT22;3665;51.034;13.642;2023-03-01T16:38:27;1.70;1.00
7248;DHT22;3665;51.034;13.642;2023-03-01T16:43:19;1.40;1.00
7248;DHT22;3665;51.034;13.642;2023-03-01T16:48:03;1.20;1.00
7248;DHT22;3665;51.034;13.642;2023-03-01T16:52:51;0.90;1.00
7248;DHT22;3665;51.034;13.642;2023-03-01T16:57:45;0.60;1.00
7248;DHT22;3665;51.034;13.642;2023-03-01T17:02:28;0.30;1.00
7248;DHT22;3665;51.034;13.642;2023-03-01T17:07:18;0.10;1.00
7248;DHT22;3665;51.034;13.642;2023-03-01T17:12:04;-0.30;1.00
7248;DHT22;3665;51.034;13.642;2023-03-01T17:16:52;-0.60;1.00
7248;DHT22;3665;51.034;13.642;2023-03-01T17:21:42;-0.90;1.00
7248;DHT22;3665;51.034;13.642;2023-03-01T17:26:28;-1.20;1.00
7248;DHT22;3665;51.034;13.642;2023-03-01T17:31:21;-1.30;11.20
7248;DHT22;3665;51.034;13.642;2023-03-01T17:36:06;-1.30;10.40
7248;DHT22;3665;51.034;13.642;2023-03-01T17:40:50;-1.50;16.80
7248;DHT22;3665;51.034;13.642;2023-03-01T17:45:40;-1.60;43.60
7248;DHT22;3665;51.034;13.642;2023-03-01T17:50:26;-1.60;45.50
7248;DHT22;3665;51.034;13.642;2023-03-01T17:55:21;-1.80;48.30
7248;DHT22;3665;51.034;13.642;2023-03-01T18:00:06;-1.80;92.50
7248;DHT22;3665;51.034;13.642;2023-03-01T18:05:00;-2.10;99.90
7248;DHT22;3665;51.034;13.642;2023-03-01T18:09:56;-2.10;99.90
7248;DHT22;3665;51.034;13.642;2023-03-01T18:14:45;-2.10;99.90
7248;DHT22;3665;51.034;13.642;2023-03-01T18:19:32;-2.20;99.90
7248;DHT22;3665;51.034;13.642;2023-03-01T18:24:19;-2.20;99.90
7248;DHT22;3665;51.034;13.642;2023-03-01T18:29:08;-2.30;99.90
7248;DHT22;3665;51.034;13.642;2023-03-01T18:33:56;-2.40;99.90
7248;DHT22;3665;51.034;13.642;2023-03-01T18:38:42;-2.40;99.90
7248;DHT22;3665;51.034;13.642;2023-03-01T18:43:32;-2.50;99.90
7248;DHT22;3665;51.034;13.642;2023-03-01T18:48:20;-2.60;99.90
7248;DHT22;3665;51.034;13.642;2023-03-01T18:53:09;-2.50;99.90
7248;DHT22;3665;51.034;13.642;2023-03-01T18:57:56;-2.30;99.90
7248;DHT22;3665;51.034;13.642;2023-03-01T19:02:43;-2.00;42.70
7248;DHT22;3665;51.034;13.642;2023-03-01T19:07:31;-1.70;1.00
7248;DHT22;3665;51.034;13.642;2023-03-01T19:12:26;-1.50;1.00
7248;DHT22;3665;51.034;13.642;2023-03-01T19:17:27;-1.30;1.00
7248;DHT22;3665;51.034;13.642;2023-03-01T19:22:13;-1.10;1.00
7248;DHT22;3665;51.034;13.642;2023-03-01T19:26:59;-1.10;1.00
7248;DHT22;3665;51.034;13.642;2023-03-01T19:31:53;-1.10;1.00
7248;DHT22;3665;51.034;13.642;2023-03-01T19:36:37;-1.20;1.00
7248;DHT22;3665;51.034;13.642;2023-03-01T19:41:22;-1.20;1.00
7248;DHT22;3665;51.034;13.642;2023-03-01T19:46:11;-1.50;1.00
7248;DHT22;3665;51.034;13.642;2023-03-01T19:51:00;-1.70;1.00
7248;DHT22;3665;51.034;13.642;2023-03-01T19:55:47;-1.70;1.00
7248;DHT22;3665;51.034;13.642;2023-03-01T20:00:44;-1.80;1.00
7248;DHT22;3665;51.034;13.642;2023-03-01T20:05:40;-1.80;1.00
7248;DHT22;3665;51.034;13.642;2023-03-01T20:10:30;-2.00;1.00
7248;DHT22;3665;51.034;13.642;2023-03-01T20:15:14;-1.80;1.00
7248;DHT22;3665;51.034;13.642;2023-03-01T20:20:08;-1.90;1.00
7248;DHT22;3665;51.034;13.642;2023-03-01T20:24:52;-2.00;1.00
7248;DHT22;3665;51.034;13.642;2023-03-01T20:29:42;-2.00;1.00
7248;DHT22;3665;51.034;13.642;2023-03-01T20:34:27;-1.90;1.00
7248;DHT22;3665;51.034;13.642;2023-03-01T20:39:19;-1.90;1.00
7248;DHT22;3665;51.034;13.642;2023-03-01T20:44:04;-1.90;1.00
7248;DHT22;3665;51.034;13.642;2023-03-01T20:48:52;-1.80;1.00
7248;DHT22;3665;51.034;13.642;2023-03-01T20:53:40;-1.90;1.00
7248;DHT22;3665;51.034;13.642;2023-03-01T20:58:28;-1.70;1.00
7248;DHT22;3665;51.034;13.642;2023-03-01T21:03:16;-1.70;1.00
7248;DHT22;3665;51.034;13.642;2023-03-01T21:08:04;-1.70;1.00
7248;DHT22;3665;51.034;13.642;2023-03-01T21:12:55;-1.60;1.00
7248;DHT22;3665;51.034;13.642;2023-03-01T21:17:38;-1.50;1.00
7248;DHT22;3665;51.034;13.642;2023-03-01T21:22:33;-1.70;1.00
7248;DHT22;3665;51.034;13.642;2023-03-01T21:27:36;-1.70;1.00
7248;DHT22;3665;51.034;13.642;2023-03-01T21:32:20;-2.00;1.00
7248;DHT22;3665;51.034;13.642;2023-03-01T21:37:08;-2.10;1.00
7248;DHT22;3665;51.034;13.642;2023-03-01T21:41:56;-2.30;1.00
7248;DHT22;3665;51.034;13.642;2023-03-01T21:46:47;-2.50;1.00
7248;DHT22;3665;51.034;13.642;2023-03-01T21:51:31;-2.70;1.00
7248;DHT22;3665;51.034;13.642;2023-03-01T21:56:26;-2.90;1.00
7248;DHT22;3665;51.034;13.642;2023-03-01T22:01:25;-3.00;1.00
7248;DHT22;3665;51.034;13.642;2023-03-01T22:06:14;-3.10;6.80
7248;DHT22;3665;51.034;13.642;2023-03-01T22:16:56;-3.20;52.40
7248;DHT22;3665;51.034;13.642;2023-03-01T22:22:52;-3.30;60.10
7248;DHT22;3665;51.034;13.642;2023-03-01T22:28:08;-3.40;95.30
7248;DHT22;3665;51.034;13.642;2023-03-01T22:33:57;-3.50;99.90
7248;DHT22;3665;51.034;13.642;2023-03-01T22:38:46;-3.60;99.90
7248;DHT22;3665;51.034;13.642;2023-03-01T22:43:32;-3.50;99.90
7248;DHT22;3665;51.034;13.642;2023-03-01T22:48:21;-3.60;99.90
7248;DHT22;3665;51.034;13.642;2023-03-01T22:53:07;-3.70;99.90
7248;DHT22;3665;51.034;13.642;2023-03-01T22:57:56;-3.70;99.90
7248;DHT22;3665;51.034;13.642;2023-03-01T23:02:44;-3.80;99.90
7248;DHT22;3665;51.034;13.642;2023-03-01T23:07:31;-3.80;99.90
7248;DHT22;3665;51.034;13.642;2023-03-01T23:12:18;-3.50;1.00
7248;DHT22;3665;51.034;13.642;2023-03-01T23:17:29;-3.40;99.90
7248;DHT22;3665;51.034;13.642;2023-03-01T23:22:44;-3.40;99.90
7248;DHT22;3665;51.034;13.642;2023-03-01T23:27:34;-3.30;99.90
7248;DHT22;3665;51.034;13.642;2023-03-01T23:32:18;-3.40;55.40
7248;DHT22;3665;51.034;13.642;2023-03-01T23:37:10;-3.60;29.80
7248;DHT22;3665;51.034;13.642;2023-03-01T23:41:55;-3.80;49.70
7248;DHT22;3665;51.034;13.642;2023-03-01T23:46:43;-3.90;95.20
7248;DHT22;3665;51.034;13.642;2023-03-01T23:51:32;-3.60;99.00
7248;DHT22;3665;51.034;13.642;2023-03-01T23:56:22;-3.70;15.50
